sensor_id;sensor_type;location;lat;lon;timestamp;pressure;altitude;pressure_sealevel;temperature;humidity
25855;BME280;13680;49.936;11.344;2023-04-28T00:00:49;96743.50;;;10.19;62.31
25855;BME280;13680;49.936;11.344;2023-04-28T00:03:14;96733.78;;;10.23;61.84
25855;BME280;13680;49.936;11.344;2023-04-28T00:05:40;96740.25;;;10.22;61.50
25855;BME280;13680;49.936;11.344;2023-04-28T00:08:06;96729.59;;;10.31;61.72
25855;BME280;13680;49.936;11.344;2023-04-28T00:10:31;96733.25;;;10.21;62.72
25855;BME280;13680;49.936;11.344;2023-04-28T00:12:56;96718.13;;;10.25;62.71
25855;BME280;13680;49.936;11.344;2023-04-28T00:15:22;96720.81;;;10.25;62.50
25855;BME280;13680;49.936;11.344;2023-04-28T00:17:47;96706.81;;;10.28;62.76
25855;BME280;13680;49.936;11.344;2023-04-28T00:20:12;96706.81;;;10.28;62.77
25855;BME280;13680;49.936;11.344;2023-04-28T00:22:38;96707.88;;;10.27;63.04
25855;BME280;13680;49.936;11.344;2023-04-28T00:25:04;96711.78;;;10.35;63.01
25855;BME280;13680;49.936;11.344;2023-04-28T00:27:31;96705.88;;;10.33;63.44
25855;BME280;13680;49.936;11.344;2023-04-28T00:29:57;96704.78;;;10.34;63.46
25855;BME280;13680;49.936;11.344;2023-04-28T00:32:22;96699.81;;;10.27;63.35
25855;BME280;13680;49.936;11.344;2023-04-28T00:34:47;96695.75;;;10.30;63.54
25855;BME280;13680;49.936;11.344;2023-04-28T00:37:13;96693.78;;;10.36;63.13
25855;BME280;13680;49.936;11.344;2023-04-28T00:39:38;96685.19;;;10.34;63.10
25855;BME280;13680;49.936;11.344;2023-04-28T00:42:05;96685.97;;;10.20;64.64
25855;BME280;13680;49.936;11.344;2023-04-28T00:44:31;96682.00;;;10.31;63.93
25855;BME280;13680;49.936;11.344;2023-04-28T00:46:57;96679.72;;;10.25;63.90
25855;BME280;13680;49.936;11.344;2023-04-28T00:49:24;96674.56;;;10.28;64.32
25855;BME280;13680;49.936;11.344;2023-04-28T00:51:49;96666.06;;;10.35;63.70
25855;BME280;13680;49.936;11.344;2023-04-28T00:54:15;96663.94;;;10.37;63.98
25855;BME280;13680;49.936;11.344;2023-04-28T00:56:41;96659.09;;;10.34;64.66
25855;BME280;13680;49.936;11.344;2023-04-28T00:59:07;96659.34;;;10.38;64.14
25855;BME280;13680;49.936;11.344;2023-04-28T01:01:34;96652.94;;;10.34;64.14
25855;BME280;13680;49.936;11.344;2023-04-28T01:03:59;96655.13;;;10.31;64.36
25855;BME280;13680;49.936;11.344;2023-04-28T01:06:26;96654.81;;;10.33;64.71
25855;BME280;13680;49.936;11.344;2023-04-28T01:08:52;96655.72;;;10.28;64.04
25855;BME280;13680;49.936;11.344;2023-04-28T01:11:18;96645.38;;;10.22;64.83
25855;BME280;13680;49.936;11.344;2023-04-28T01:13:44;96648.25;;;10.25;64.67
25855;BME280;13680;49.936;11.344;2023-04-28T01:16:09;96641.13;;;10.21;64.46
25855;BME280;13680;49.936;11.344;2023-04-28T01:18:35;96645.19;;;10.18;64.81
25855;BME280;13680;49.936;11.344;2023-04-28T01:21:00;96643.09;;;10.15;64.63
25855;BME280;13680;49.936;11.344;2023-04-28T01:23:26;96638.22;;;10.17;64.25
25855;BME280;13680;49.936;11.344;2023-04-28T01:25:51;96641.91;;;10.21;64.05
25855;BME280;13680;49.936;11.344;2023-04-28T01:28:17;96641.22;;;10.15;63.98
25855;BME280;13680;49.936;11.344;2023-04-28T01:30:42;96641.50;;;10.14;64.43
25855;BME280;13680;49.936;11.344;2023-04-28T01:33:07;96640.81;;;10.08;64.60
25855;BME280;13680;49.936;11.344;2023-04-28T01:35:33;96635.13;;;10.10;64.59
25855;BME280;13680;49.936;11.344;2023-04-28T01:37:58;96634.81;;;10.11;64.64
25855;BME280;13680;49.936;11.344;2023-04-28T01:40:23;96639.41;;;10.11;64.49
25855;BME280;13680;49.936;11.344;2023-04-28T01:42:49;96646.75;;;10.05;64.08
25855;BME280;13680;49.936;11.344;2023-04-28T01:45:15;96643.91;;;10.02;64.35
25855;BME280;13680;49.936;11.344;2023-04-28T01:47:40;96637.50;;;9.97;65.21
25855;BME280;13680;49.936;11.344;2023-04-28T01:50:06;96628.88;;;10.01;65.19
25855;BME280;13680;49.936;11.344;2023-04-28T01:52:31;96634.34;;;9.95;65.03
25855;BME280;13680;49.936;11.344;2023-04-28T01:54:56;96621.13;;;9.99;65.14
25855;BME280;13680;49.936;11.344;2023-04-28T01:57:22;96627.88;;;9.96;65.39
25855;BME280;13680;49.936;11.344;2023-04-28T01:59:47;96621.50;;;9.92;65.23
25855;BME280;13680;49.936;11.344;2023-04-28T02:02:12;96611.75;;;9.96;65.24
25855;BME280;13680;49.936;11.344;2023-04-28T02:04:38;96606.41;;;9.96;65.66
25855;BME280;13680;49.936;11.344;2023-04-28T02:07:03;96618.22;;;9.95;64.67
25855;BME280;13680;49.936;11.344;2023-04-28T02:09:29;96615.63;;;9.90;65.71
25855;BME280;13680;49.936;11.344;2023-04-28T02:11:54;96619.31;;;9.94;66.07
25855;BME280;13680;49.936;11.344;2023-04-28T02:14:19;96617.25;;;9.91;65.82
25855;BME280;13680;49.936;11.344;2023-04-28T02:16:45;96617.41;;;9.95;66.03
25855;BME280;13680;49.936;11.344;2023-04-28T02:19:10;96613.44;;;9.92;65.95
25855;BME280;13680;49.936;11.344;2023-04-28T02:21:35;96611.75;;;9.96;65.81
25855;BME280;13680;49.936;11.344;2023-04-28T02:24:01;96611.34;;;10.03;65.66
25855;BME280;13680;49.936;11.344;2023-04-28T02:26:26;96606.56;;;10.00;65.62
25855;BME280;13680;49.936;11.344;2023-04-28T02:28:51;96603.09;;;9.99;65.70
25855;BME280;13680;49.936;11.344;2023-04-28T02:31:17;96596.63;;;10.01;65.82
25855;BME280;13680;49.936;11.344;2023-04-28T02:33:42;96598.72;;;10.04;65.96
25855;BME280;13680;49.936;11.344;2023-04-28T02:36:08;96596.75;;;9.95;65.97
25855;BME280;13680;49.936;11.344;2023-04-28T02:38:33;96599.31;;;10.01;66.08
25855;BME280;13680;49.936;11.344;2023-04-28T02:41:03;96596.44;;;9.97;66.39
25855;BME280;13680;49.936;11.344;2023-04-28T02:43:29;96607.19;;;9.97;66.96
25855;BME280;13680;49.936;11.344;2023-04-28T02:45:55;96605.28;;;9.97;66.58
25855;BME280;13680;49.936;11.344;2023-04-28T02:48:23;96604.78;;;9.95;66.17
25855;BME280;13680;49.936;11.344;2023-04-28T02:50:49;96602.22;;;9.90;66.47
25855;BME280;13680;49.936;11.344;2023-04-28T02:53:14;96602.41;;;9.94;66.16
25855;BME280;13680;49.936;11.344;2023-04-28T02:55:40;96597.63;;;9.91;66.01
25855;BME280;13680;49.936;11.344;2023-04-28T02:58:05;96597.03;;;9.94;66.14
25855;BME280;13680;49.936;11.344;2023-04-28T03:00:31;96595.75;;;9.91;66.43
25855;BME280;13680;49.936;11.344;2023-04-28T03:02:56;96587.69;;;9.91;66.80
25855;BME280;13680;49.936;11.344;2023-04-28T03:05:21;96590.84;;;9.93;67.54
25855;BME280;13680;49.936;11.344;2023-04-28T03:07:47;96585.47;;;9.93;66.96
25855;BME280;13680;49.936;11.344;2023-04-28T03:10:12;96580.09;;;9.93;67.11
25855;BME280;13680;49.936;11.344;2023-04-28T03:12:37;96579.53;;;9.96;66.93
25855;BME280;13680;49.936;11.344;2023-04-28T03:15:03;96570.88;;;9.86;67.51
25855;BME280;13680;49.936;11.344;2023-04-28T03:17:28;96574.63;;;9.85;67.85
25855;BME280;13680;49.936;11.344;2023-04-28T03:19:54;96564.81;;;9.80;68.40
25855;BME280;13680;49.936;11.344;2023-04-28T03:22:20;96564.41;;;9.87;67.69
25855;BME280;13680;49.936;11.344;2023-04-28T03:24:45;96567.41;;;9.85;67.93
25855;BME280;13680;49.936;11.344;2023-04-28T03:27:11;96564.97;;;9.83;68.17
25855;BME280;13680;49.936;11.344;2023-04-28T03:29:36;96560.63;;;9.88;68.15
25855;BME280;13680;49.936;11.344;2023-04-28T03:32:01;96554.75;;;9.86;68.34
25855;BME280;13680;49.936;11.344;2023-04-28T03:34:27;96549.19;;;9.82;68.35
25855;BME280;13680;49.936;11.344;2023-04-28T03:36:52;96553.88;;;9.90;68.62
25855;BME280;13680;49.936;11.344;2023-04-28T03:39:18;96545.31;;;9.88;68.17
25855;BME280;13680;49.936;11.344;2023-04-28T03:41:43;96536.25;;;9.84;68.24
25855;BME280;13680;49.936;11.344;2023-04-28T03:44:08;96529.78;;;9.85;68.97
25855;BME280;13680;49.936;11.344;2023-04-28T03:46:34;96539.34;;;9.91;68.53
25855;BME280;13680;49.936;11.344;2023-04-28T03:48:59;96536.16;;;9.89;68.53
25855;BME280;13680;49.936;11.344;2023-04-28T03:51:27;96543.31;;;9.94;69.07
25855;BME280;13680;49.936;11.344;2023-04-28T03:53:53;96547.66;;;10.04;68.82
25855;BME280;13680;49.936;11.344;2023-04-28T03:56:18;96541.22;;;10.05;68.76
25855;BME280;13680;49.936;11.344;2023-04-28T03:58:44;96543.09;;;10.04;68.41
25855;BME280;13680;49.936;11.344;2023-04-28T04:01:09;96538.72;;;10.08;68.03
25855;BME280;13680;49.936;11.344;2023-04-28T04:03:34;96547.88;;;10.07;68.24
25855;BME280;13680;49.936;11.344;2023-04-28T04:06:00;96544.88;;;10.09;68.37
25855;BME280;13680;49.936;11.344;2023-04-28T04:08:26;96536.69;;;10.14;67.71
25855;BME280;13680;49.936;11.344;2023-04-28T04:10:51;96544.06;;;10.22;67.76
25855;BME280;13680;49.936;11.344;2023-04-28T04:13:19;96534.81;;;10.14;68.09
25855;BME280;13680;49.936;11.344;2023-04-28T04:15:44;96531.84;;;10.16;68.26
25855;BME280;13680;49.936;11.344;2023-04-28T04:18:10;96531.22;;;10.19;68.58
25855;BME280;13680;49.936;11.344;2023-04-28T04:20:35;96534.72;;;10.20;68.43
25855;BME280;13680;49.936;11.344;2023-04-28T04:23:01;96531.72;;;10.21;67.72
25855;BME280;13680;49.936;11.344;2023-04-28T04:25:27;96528.31;;;10.29;67.39
25855;BME280;13680;49.936;11.344;2023-04-28T04:27:53;96525.94;;;10.28;67.73
25855;BME280;13680;49.936;11.344;2023-04-28T04:30:19;96525.13;;;10.27;67.83
25855;BME280;13680;49.936;11.344;2023-04-28T04:32:44;96534.91;;;10.37;67.00
25855;BME280;13680;49.936;11.344;2023-04-28T04:35:09;96530.00;;;10.39;65.03
25855;BME280;13680;49.936;11.344;2023-04-28T04:37:35;96523.22;;;10.42;66.29
25855;BME280;13680;49.936;11.344;2023-04-28T04:40:00;96520.63;;;10.51;66.13
25855;BME280;13680;49.936;11.344;2023-04-28T04:42:25;96520.38;;;10.61;64.81
25855;BME280;13680;49.936;11.344;2023-04-28T04:44:51;96522.88;;;10.57;62.94
25855;BME280;13680;49.936;11.344;2023-04-28T04:47:16;96533.88;;;10.70;64.04
25855;BME280;13680;49.936;11.344;2023-04-28T04:49:41;96527.28;;;10.76;64.93
25855;BME280;13680;49.936;11.344;2023-04-28T04:52:06;96528.75;;;10.82;65.21
25855;BME280;13680;49.936;11.344;2023-04-28T04:54:32;96521.16;;;10.84;65.67
25855;BME280;13680;49.936;11.344;2023-04-28T04:56:57;96522.50;;;10.95;63.70
25855;BME280;13680;49.936;11.344;2023-04-28T04:59:23;96521.91;;;10.99;63.61
25855;BME280;13680;49.936;11.344;2023-04-28T05:01:48;96524.16;;;11.05;64.97
25855;BME280;13680;49.936;11.344;2023-04-28T05:04:13;96514.84;;;11.11;65.82
25855;BME280;13680;49.936;11.344;2023-04-28T05:06:39;96521.06;;;11.21;65.79
25855;BME280;13680;49.936;11.344;2023-04-28T05:09:04;96521.63;;;11.09;66.81
25855;BME280;13680;49.936;11.344;2023-04-28T05:11:30;96524.50;;;11.12;65.80
25855;BME280;13680;49.936;11.344;2023-04-28T05:13:55;96525.94;;;11.19;67.04
25855;BME280;13680;49.936;11.344;2023-04-28T05:16:20;96516.63;;;11.25;67.37
25855;BME280;13680;49.936;11.344;2023-04-28T05:18:46;96514.59;;;11.22;67.99
25855;BME280;13680;49.936;11.344;2023-04-28T05:21:12;96524.59;;;11.30;67.64
25855;BME280;13680;49.936;11.344;2023-04-28T05:23:37;96517.31;;;11.30;67.72
25855;BME280;13680;49.936;11.344;2023-04-28T05:26:03;96515.59;;;11.35;67.57
25855;BME280;13680;49.936;11.344;2023-04-28T05:28:29;96519.88;;;11.36;67.60
25855;BME280;13680;49.936;11.344;2023-04-28T05:30:55;96511.13;;;11.30;65.70
25855;BME280;13680;49.936;11.344;2023-04-28T05:33:20;96514.81;;;11.34;64.86
25855;BME280;13680;49.936;11.344;2023-04-28T05:35:46;96514.31;;;11.32;65.47
25855;BME280;13680;49.936;11.344;2023-04-28T05:38:12;96514.34;;;11.41;65.40
25855;BME280;13680;49.936;11.344;2023-04-28T05:40:37;96514.66;;;11.39;65.01
25855;BME280;13680;49.936;11.344;2023-04-28T05:43:02;96512.13;;;11.43;64.41
25855;BME280;13680;49.936;11.344;2023-04-28T05:45:27;96510.41;;;11.47;63.34
25855;BME280;13680;49.936;11.344;2023-04-28T05:47:53;96511.84;;;11.44;64.46
25855;BME280;13680;49.936;11.344;2023-04-28T05:50:19;96510.75;;;11.54;64.22
25855;BME280;13680;49.936;11.344;2023-04-28T05:52:44;96505.81;;;11.48;66.09
25855;BME280;13680;49.936;11.344;2023-04-28T05:55:10;96512.47;;;11.50;66.31
25855;BME280;13680;49.936;11.344;2023-04-28T05:57:35;96508.88;;;11.55;63.82
25855;BME280;13680;49.936;11.344;2023-04-28T06:00:01;96505.03;;;11.47;64.47
25855;BME280;13680;49.936;11.344;2023-04-28T06:02:26;96505.38;;;11.54;66.88
25855;BME280;13680;49.936;11.344;2023-04-28T06:04:51;96506.16;;;11.55;64.99
25855;BME280;13680;49.936;11.344;2023-04-28T06:07:17;96505.84;;;11.56;62.45
25855;BME280;13680;49.936;11.344;2023-04-28T06:09:42;96501.75;;;11.59;62.63
25855;BME280;13680;49.936;11.344;2023-04-28T06:12:07;96501.56;;;11.55;61.46
25855;BME280;13680;49.936;11.344;2023-04-28T06:14:32;96496.97;;;11.47;62.34
25855;BME280;13680;49.936;11.344;2023-04-28T06:17:00;96504.03;;;11.43;63.56
25855;BME280;13680;49.936;11.344;2023-04-28T06:19:25;96505.06;;;11.65;63.27
25855;BME280;13680;49.936;11.344;2023-04-28T06:21:51;96501.28;;;11.66;64.16
25855;BME280;13680;49.936;11.344;2023-04-28T06:24:17;96506.84;;;11.69;62.22
25855;BME280;13680;49.936;11.344;2023-04-28T06:26:42;96513.69;;;11.75;61.22
25855;BME280;13680;49.936;11.344;2023-04-28T06:29:07;96499.56;;;11.78;61.82
25855;BME280;13680;49.936;11.344;2023-04-28T06:31:33;96497.84;;;11.74;63.13
25855;BME280;13680;49.936;11.344;2023-04-28T06:33:58;96503.00;;;12.02;63.38
25855;BME280;13680;49.936;11.344;2023-04-28T06:36:23;96500.16;;;12.07;62.81
25855;BME280;13680;49.936;11.344;2023-04-28T06:38:49;96504.59;;;12.29;62.67
25855;BME280;13680;49.936;11.344;2023-04-28T06:41:14;96500.00;;;12.38;63.11
25855;BME280;13680;49.936;11.344;2023-04-28T06:43:39;96491.75;;;12.43;61.69
25855;BME280;13680;49.936;11.344;2023-04-28T06:46:05;96490.16;;;12.69;62.21
25855;BME280;13680;49.936;11.344;2023-04-28T06:48:30;96490.63;;;12.71;61.98
25855;BME280;13680;49.936;11.344;2023-04-28T06:50:56;96486.19;;;12.75;59.66
25855;BME280;13680;49.936;11.344;2023-04-28T06:53:21;96480.34;;;12.55;60.61
25855;BME280;13680;49.936;11.344;2023-04-28T06:55:47;96482.56;;;12.44;60.75
25855;BME280;13680;49.936;11.344;2023-04-28T06:58:12;96480.34;;;12.38;59.58
25855;BME280;13680;49.936;11.344;2023-04-28T07:00:37;96478.09;;;12.66;59.20
25855;BME280;13680;49.936;11.344;2023-04-28T07:03:03;96471.09;;;12.74;60.14
25855;BME280;13680;49.936;11.344;2023-04-28T07:05:28;96479.22;;;12.21;60.56
25855;BME280;13680;49.936;11.344;2023-04-28T07:07:54;96472.53;;;12.45;60.25
25855;BME280;13680;49.936;11.344;2023-04-28T07:10:19;96469.06;;;12.53;59.31
25855;BME280;13680;49.936;11.344;2023-04-28T07:12:45;96478.59;;;12.59;59.39
25855;BME280;13680;49.936;11.344;2023-04-28T07:15:11;96479.69;;;12.58;58.74
25855;BME280;13680;49.936;11.344;2023-04-28T07:17:37;96471.13;;;12.48;58.81
25855;BME280;13680;49.936;11.344;2023-04-28T07:20:02;96461.13;;;12.66;60.20
25855;BME280;13680;49.936;11.344;2023-04-28T07:22:29;96469.06;;;12.62;59.06
25855;BME280;13680;49.936;11.344;2023-04-28T07:24:54;96470.78;;;12.67;59.83
25855;BME280;13680;49.936;11.344;2023-04-28T07:27:19;96469.03;;;12.80;60.13
25855;BME280;13680;49.936;11.344;2023-04-28T07:29:45;96466.69;;;12.60;60.14
25855;BME280;13680;49.936;11.344;2023-04-28T07:32:11;96480.78;;;12.75;59.81
25855;BME280;13680;49.936;11.344;2023-04-28T07:34:36;96487.59;;;12.90;60.12
25855;BME280;13680;49.936;11.344;2023-04-28T07:37:02;96483.91;;;12.86;60.95
25855;BME280;13680;49.936;11.344;2023-04-28T07:39:30;96482.66;;;12.83;62.02
25855;BME280;13680;49.936;11.344;2023-04-28T07:41:55;96464.22;;;13.03;62.27
25855;BME280;13680;49.936;11.344;2023-04-28T07:44:22;96464.19;;;13.12;64.28
25855;BME280;13680;49.936;11.344;2023-04-28T07:46:47;96467.50;;;13.17;64.99
25855;BME280;13680;49.936;11.344;2023-04-28T07:49:13;96457.53;;;13.09;65.46
25855;BME280;13680;49.936;11.344;2023-04-28T07:51:38;96461.59;;;13.15;65.38
25855;BME280;13680;49.936;11.344;2023-04-28T07:54:03;96464.31;;;13.15;63.73
25855;BME280;13680;49.936;11.344;2023-04-28T07:56:29;96472.13;;;13.08;65.01
25855;BME280;13680;49.936;11.344;2023-04-28T07:58:54;96489.94;;;13.00;65.25
25855;BME280;13680;49.936;11.344;2023-04-28T08:01:19;96486.53;;;13.21;64.40
25855;BME280;13680;49.936;11.344;2023-04-28T08:03:45;96501.97;;;13.12;64.93
25855;BME280;13680;49.936;11.344;2023-04-28T08:06:11;96489.88;;;13.18;64.68
25855;BME280;13680;49.936;11.344;2023-04-28T08:08:37;96487.03;;;13.14;63.74
25855;BME280;13680;49.936;11.344;2023-04-28T08:11:02;96503.28;;;12.97;63.86
25855;BME280;13680;49.936;11.344;2023-04-28T08:13:27;96510.56;;;13.05;65.18
25855;BME280;13680;49.936;11.344;2023-04-28T08:15:53;96509.47;;;12.97;64.51
25855;BME280;13680;49.936;11.344;2023-04-28T08:18:21;96516.34;;;12.77;65.08
25855;BME280;13680;49.936;11.344;2023-04-28T08:20:46;96518.38;;;12.71;65.71
25855;BME280;13680;49.936;11.344;2023-04-28T08:23:12;96528.06;;;12.72;65.51
25855;BME280;13680;49.936;11.344;2023-04-28T08:25:37;96523.16;;;12.57;67.34
25855;BME280;13680;49.936;11.344;2023-04-28T08:28:02;96509.69;;;12.57;69.09
25855;BME280;13680;49.936;11.344;2023-04-28T08:30:28;96512.84;;;12.59;67.86
25855;BME280;13680;49.936;11.344;2023-04-28T08:32:54;96513.16;;;12.57;69.13
25855;BME280;13680;49.936;11.344;2023-04-28T08:35:19;96501.09;;;12.46;70.20
25855;BME280;13680;49.936;11.344;2023-04-28T08:37:44;96508.56;;;12.58;70.62
25855;BME280;13680;49.936;11.344;2023-04-28T08:40:11;96503.81;;;12.55;71.60
25855;BME280;13680;49.936;11.344;2023-04-28T08:42:37;96497.31;;;12.47;72.04
25855;BME280;13680;49.936;11.344;2023-04-28T08:45:03;96504.13;;;12.36;72.13
25855;BME280;13680;49.936;11.344;2023-04-28T08:47:36;96498.91;;;12.57;71.32
25855;BME280;13680;49.936;11.344;2023-04-28T08:50:06;96496.81;;;12.54;71.61
25855;BME280;13680;49.936;11.344;2023-04-28T08:52:33;96492.41;;;12.58;72.36
25855;BME280;13680;49.936;11.344;2023-04-28T08:55:04;96482.84;;;12.69;72.49
25855;BME280;13680;49.936;11.344;2023-04-28T08:57:44;96465.38;;;12.67;71.63
25855;BME280;13680;49.936;11.344;2023-04-28T09:00:10;96472.88;;;12.52;72.50
25855;BME280;13680;49.936;11.344;2023-04-28T09:02:36;96482.38;;;12.67;70.97
25855;BME280;13680;49.936;11.344;2023-04-28T09:05:10;96489.38;;;12.24;72.90
25855;BME280;13680;49.936;11.344;2023-04-28T09:07:35;96488.09;;;12.66;71.75
25855;BME280;13680;49.936;11.344;2023-04-28T09:10:22;96496.94;;;12.92;70.85
25855;BME280;13680;49.936;11.344;2023-04-28T09:12:53;96481.38;;;12.89;70.35
25855;BME280;13680;49.936;11.344;2023-04-28T09:15:35;96481.69;;;12.97;72.54
25855;BME280;13680;49.936;11.344;2023-04-28T09:18:02;96479.50;;;12.90;73.23
25855;BME280;13680;49.936;11.344;2023-04-28T09:20:29;96457.19;;;13.10;72.91
25855;BME280;13680;49.936;11.344;2023-04-28T09:23:11;96466.19;;;12.76;73.92
25855;BME280;13680;49.936;11.344;2023-04-28T09:25:37;96469.78;;;12.98;73.44
25855;BME280;13680;49.936;11.344;2023-04-28T09:28:21;96466.38;;;13.18;71.97
25855;BME280;13680;49.936;11.344;2023-04-28T09:30:47;96467.16;;;13.19;72.11
25855;BME280;13680;49.936;11.344;2023-04-28T09:33:12;96462.84;;;13.26;74.62
25855;BME280;13680;49.936;11.344;2023-04-28T09:35:39;96425.69;;;13.62;73.09
25855;BME280;13680;49.936;11.344;2023-04-28T09:38:05;96446.69;;;13.56;71.22
25855;BME280;13680;49.936;11.344;2023-04-28T09:40:30;96448.34;;;13.49;69.22
25855;BME280;13680;49.936;11.344;2023-04-28T09:42:56;96452.94;;;13.48;69.59
25855;BME280;13680;49.936;11.344;2023-04-28T09:45:22;96451.25;;;13.65;69.80
25855;BME280;13680;49.936;11.344;2023-04-28T09:47:49;96449.50;;;13.69;72.00
25855;BME280;13680;49.936;11.344;2023-04-28T09:50:15;96449.50;;;13.69;72.61
25855;BME280;13680;49.936;11.344;2023-04-28T09:52:44;96432.47;;;13.68;72.58
25855;BME280;13680;49.936;11.344;2023-04-28T09:55:11;96432.53;;;13.59;73.34
25855;BME280;13680;49.936;11.344;2023-04-28T09:57:38;96424.19;;;13.73;74.16
25855;BME280;13680;49.936;11.344;2023-04-28T10:00:05;96423.69;;;13.12;75.40
25855;BME280;13680;49.936;11.344;2023-04-28T10:02:32;96414.91;;;13.23;74.57
25855;BME280;13680;49.936;11.344;2023-04-28T10:04:58;96412.50;;;13.61;73.27
25855;BME280;13680;49.936;11.344;2023-04-28T10:07:25;96414.63;;;13.76;74.97
25855;BME280;13680;49.936;11.344;2023-04-28T10:09:51;96407.13;;;13.82;74.69
25855;BME280;13680;49.936;11.344;2023-04-28T10:12:17;96386.34;;;13.52;76.33
25855;BME280;13680;49.936;11.344;2023-04-28T10:14:43;96369.41;;;13.64;73.78
25855;BME280;13680;49.936;11.344;2023-04-28T10:17:12;96362.47;;;13.54;77.14
25855;BME280;13680;49.936;11.344;2023-04-28T10:19:40;96364.00;;;13.85;77.16
25855;BME280;13680;49.936;11.344;2023-04-28T10:22:46;96361.34;;;14.19;77.58
25855;BME280;13680;49.936;11.344;2023-04-28T10:25:25;96364.59;;;14.92;72.25
25855;BME280;13680;49.936;11.344;2023-04-28T10:27:51;96358.63;;;14.98;71.71
25855;BME280;13680;49.936;11.344;2023-04-28T10:30:21;96371.94;;;14.57;71.09
25855;BME280;13680;49.936;11.344;2023-04-28T10:35:41;96374.72;;;14.82;69.98
25855;BME280;13680;49.936;11.344;2023-04-28T10:38:12;96366.25;;;14.71;69.96
25855;BME280;13680;49.936;11.344;2023-04-28T10:40:44;96381.25;;;14.69;71.77
25855;BME280;13680;49.936;11.344;2023-04-28T10:43:32;96374.78;;;14.61;71.04
25855;BME280;13680;49.936;11.344;2023-04-28T10:58:49;96391.47;;;14.30;71.41
25855;BME280;13680;49.936;11.344;2023-04-28T11:04:08;96393.06;;;14.10;74.25
25855;BME280;13680;49.936;11.344;2023-04-28T11:06:43;96386.47;;;14.19;75.34
25855;BME280;13680;49.936;11.344;2023-04-28T11:12:03;96390.56;;;14.26;75.55
25855;BME280;13680;49.936;11.344;2023-04-28T11:14:35;96398.34;;;14.27;73.84
25855;BME280;13680;49.936;11.344;2023-04-28T11:17:06;96393.47;;;14.20;75.01
25855;BME280;13680;49.936;11.344;2023-04-28T11:19:34;96396.16;;;14.20;75.85
25855;BME280;13680;49.936;11.344;2023-04-28T11:22:02;96396.63;;;14.22;75.35
25855;BME280;13680;49.936;11.344;2023-04-28T11:24:29;96396.16;;;14.20;75.23
25855;BME280;13680;49.936;11.344;2023-04-28T11:26:56;96399.22;;;14.19;75.44
25855;BME280;13680;49.936;11.344;2023-04-28T11:29:38;96393.81;;;13.98;76.05
25855;BME280;13680;49.936;11.344;2023-04-28T11:32:06;96395.66;;;14.06;77.04
25855;BME280;13680;49.936;11.344;2023-04-28T11:34:32;96392.47;;;13.83;76.05
25855;BME280;13680;49.936;11.344;2023-04-28T11:36:58;96393.81;;;13.98;76.55
25855;BME280;13680;49.936;11.344;2023-04-28T11:39:28;96389.31;;;14.02;76.55
25855;BME280;13680;49.936;11.344;2023-04-28T11:41:54;96385.81;;;14.01;78.71
25855;BME280;13680;49.936;11.344;2023-04-28T11:44:23;96387.72;;;14.22;77.24
25855;BME280;13680;49.936;11.344;2023-04-28T11:46:51;96387.38;;;14.23;76.72
25855;BME280;13680;49.936;11.344;2023-04-28T11:49:23;96396.47;;;14.40;75.75
25855;BME280;13680;49.936;11.344;2023-04-28T11:51:50;96385.31;;;14.42;76.41
25855;BME280;13680;49.936;11.344;2023-04-28T11:54:24;96390.63;;;14.50;76.53
25855;BME280;13680;49.936;11.344;2023-04-28T11:56:50;96388.59;;;14.47;76.33
25855;BME280;13680;49.936;11.344;2023-04-28T11:59:16;96390.31;;;14.52;75.37
25855;BME280;13680;49.936;11.344;2023-04-28T12:01:47;96391.66;;;14.46;75.22
25855;BME280;13680;49.936;11.344;2023-04-28T12:04:13;96389.72;;;14.46;75.03
25855;BME280;13680;49.936;11.344;2023-04-28T12:06:39;96382.41;;;14.47;75.33
25855;BME280;13680;49.936;11.344;2023-04-28T12:09:16;96382.28;;;14.43;75.88
25855;BME280;13680;49.936;11.344;2023-04-28T12:11:55;96378.13;;;14.58;75.32
25855;BME280;13680;49.936;11.344;2023-04-28T12:14:22;96379.22;;;14.66;75.82
25855;BME280;13680;49.936;11.344;2023-04-28T12:16:47;96374.53;;;14.54;75.55
25855;BME280;13680;49.936;11.344;2023-04-28T12:19:15;96378.34;;;14.53;76.52
25855;BME280;13680;49.936;11.344;2023-04-28T12:21:41;96381.16;;;14.44;76.08
25855;BME280;13680;49.936;11.344;2023-04-28T12:26:39;96375.94;;;14.39;77.45
25855;BME280;13680;49.936;11.344;2023-04-28T12:29:05;96376.47;;;14.32;79.12
25855;BME280;13680;49.936;11.344;2023-04-28T12:31:30;96373.97;;;14.48;78.40
25855;BME280;13680;49.936;11.344;2023-04-28T12:33:56;96381.41;;;14.51;80.25
25855;BME280;13680;49.936;11.344;2023-04-28T12:36:22;96376.66;;;14.48;80.69
25855;BME280;13680;49.936;11.344;2023-04-28T12:38:47;96378.13;;;14.58;80.29
25855;BME280;13680;49.936;11.344;2023-04-28T12:41:13;96369.50;;;14.65;78.84
25855;BME280;13680;49.936;11.344;2023-04-28T12:43:39;96372.69;;;14.79;79.25
25855;BME280;13680;49.936;11.344;2023-04-28T12:46:05;96374.31;;;14.59;79.55
25855;BME280;13680;49.936;11.344;2023-04-28T12:48:32;96376.31;;;14.50;80.74
25855;BME280;13680;49.936;11.344;2023-04-28T12:50:58;96370.22;;;14.53;80.63
25855;BME280;13680;49.936;11.344;2023-04-28T12:53:24;96369.25;;;14.57;80.92
25855;BME280;13680;49.936;11.344;2023-04-28T12:55:50;96371.25;;;14.61;80.83
25855;BME280;13680;49.936;11.344;2023-04-28T12:58:15;96359.94;;;14.67;79.88
25855;BME280;13680;49.936;11.344;2023-04-28T13:00:41;96365.56;;;14.75;80.04
25855;BME280;13680;49.936;11.344;2023-04-28T13:03:07;96364.09;;;14.65;80.86
25855;BME280;13680;49.936;11.344;2023-04-28T13:05:32;96362.31;;;14.69;80.14
25855;BME280;13680;49.936;11.344;2023-04-28T13:07:59;96354.53;;;14.67;79.55
25855;BME280;13680;49.936;11.344;2023-04-28T13:10:24;96354.75;;;14.75;80.09
25855;BME280;13680;49.936;11.344;2023-04-28T13:12:50;96353.47;;;14.60;80.79